createdAt,value
2018-05-14T00:01:25.608Z,13.20
2018-05-14T00:03:54.627Z,13.21
2018-05-14T00:06:23.631Z,13.20
2018-05-14T00:08:52.649Z,13.23
2018-05-14T00:11:20.900Z,13.24
2018-05-14T00:13:49.150Z,13.25
2018-05-14T00:16:17.447Z,13.25
2018-05-14T00:18:45.709Z,13.23
2018-05-14T00:21:13.951Z,13.26
2018-05-14T00:23:42.209Z,13.30
2018-05-14T00:26:10.449Z,13.25
2018-05-14T00:28:39.483Z,13.25
2018-05-14T00:31:07.723Z,13.25
2018-05-14T00:33:35.982Z,13.31
2018-05-14T00:36:04.252Z,13.31
2018-05-14T00:38:32.520Z,13.31
2018-05-14T00:41:02.285Z,13.30
2018-05-14T00:43:30.539Z,13.33
2018-05-14T00:45:58.787Z,13.32
2018-05-14T00:48:27.041Z,13.28
2018-05-14T00:50:55.278Z,13.28
2018-05-14T00:53:23.533Z,13.27
2018-05-14T00:55:51.771Z,13.25
2018-05-14T00:58:20.795Z,13.25
2018-05-14T01:00:49.051Z,13.25
2018-05-14T01:03:17.323Z,13.25
2018-05-14T01:05:45.563Z,13.14
2018-05-14T01:08:13.810Z,13.13
2018-05-14T01:10:42.071Z,13.14
2018-05-14T01:13:10.316Z,13.06
2018-05-14T01:15:39.332Z,13.10
2018-05-14T01:18:07.624Z,13.17
2018-05-14T01:20:35.875Z,13.17
2018-05-14T01:23:04.127Z,13.19
2018-05-14T01:25:32.462Z,13.16
2018-05-14T01:28:00.777Z,13.10
2018-05-14T01:30:29.056Z,13.14
2018-05-14T01:32:58.075Z,13.13
2018-05-14T01:35:26.348Z,13.09
2018-05-14T01:37:55.367Z,13.09
2018-05-14T01:40:23.624Z,13.06
2018-05-14T01:42:51.869Z,13.03
2018-05-14T01:45:20.131Z,13.05
2018-05-14T01:47:49.146Z,12.86
2018-05-14T01:50:17.411Z,12.85
2018-05-14T01:52:46.418Z,12.89
2018-05-14T01:55:15.814Z,12.82
2018-05-14T01:57:44.087Z,12.87
2018-05-14T02:00:12.341Z,12.84
2018-05-14T02:02:40.586Z,12.77
2018-05-14T02:05:08.847Z,12.73
2018-05-14T02:07:37.099Z,12.81
2018-05-14T02:10:05.362Z,12.80
2018-05-14T02:12:34.415Z,12.88
2018-05-14T02:15:02.691Z,12.66
2018-05-14T02:17:30.960Z,12.71
2018-05-14T02:19:59.996Z,12.59
2018-05-14T02:22:28.239Z,12.75
2018-05-14T02:24:57.268Z,12.83
2018-05-14T02:27:26.271Z,12.80
2018-05-14T02:29:54.534Z,12.82
2018-05-14T02:32:22.775Z,12.85
2018-05-14T02:34:51.043Z,12.74
2018-05-14T02:37:19.306Z,12.76
2018-05-14T02:39:47.565Z,12.76
2018-05-14T02:42:15.811Z,12.77
2018-05-14T02:44:44.077Z,12.74
2018-05-14T02:47:13.074Z,12.73
2018-05-14T02:49:41.344Z,12.71
2018-05-14T02:52:09.585Z,12.72
2018-05-14T02:54:37.826Z,12.64
2018-05-14T02:57:06.083Z,12.71
2018-05-14T02:59:34.340Z,12.75
2018-05-14T03:02:03.371Z,12.62
2018-05-14T03:04:31.618Z,12.64
2018-05-14T03:06:59.872Z,12.68
2018-05-14T03:09:28.112Z,12.56
2018-05-14T03:11:57.160Z,12.66
2018-05-14T03:14:25.386Z,12.57
2018-05-14T03:16:54.411Z,12.58
2018-05-14T03:19:23.415Z,12.50
2018-05-14T03:21:52.438Z,12.55
2018-05-14T03:24:20.663Z,12.45
2018-05-14T03:26:49.591Z,12.58
2018-05-14T03:29:17.884Z,12.49
2018-05-14T03:31:46.082Z,12.52
2018-05-14T03:34:15.122Z,12.59
2018-05-14T03:36:43.371Z,12.57
2018-05-14T03:39:11.611Z,12.50
2018-05-14T03:41:39.878Z,12.54
2018-05-14T03:44:08.131Z,12.53
2018-05-14T03:46:36.387Z,12.53
2018-05-14T03:49:04.619Z,12.48
2018-05-14T03:51:32.894Z,12.50
2018-05-14T03:54:01.916Z,12.45
2018-05-14T03:56:30.951Z,12.48
2018-05-14T03:59:16.948Z,12.35
2018-05-14T04:02:13.726Z,12.31
2018-05-14T04:04:59.768Z,12.32
2018-05-14T04:07:28.020Z,12.26
2018-05-14T04:09:56.261Z,12.32
2018-05-14T04:12:24.525Z,12.22
2018-05-14T04:14:52.748Z,12.32
2018-05-14T04:17:21.779Z,12.31
2018-05-14T04:19:50.019Z,12.27
2018-05-14T04:22:18.281Z,12.37
2018-05-14T04:24:46.519Z,12.29
2018-05-14T04:27:15.563Z,12.39
2018-05-14T04:29:43.821Z,12.42
2018-05-14T04:32:12.116Z,12.46
2018-05-14T04:34:41.110Z,12.47
2018-05-14T04:37:10.240Z,12.45
2018-05-14T04:39:39.356Z,12.52
2018-05-14T04:42:08.451Z,12.56
2018-05-14T04:44:37.459Z,12.60
2018-05-14T04:47:06.483Z,12.67
2018-05-14T04:49:34.732Z,12.55
2018-05-14T04:52:03.043Z,12.57
2018-05-14T04:54:32.055Z,12.68
2018-05-14T04:57:01.091Z,12.76
2018-05-14T04:59:29.362Z,12.67
2018-05-14T05:01:57.615Z,12.70
2018-05-14T05:04:27.359Z,12.72
2018-05-14T05:06:56.456Z,12.67
2018-05-14T05:09:24.607Z,12.72
2018-05-14T05:11:52.863Z,12.72
2018-05-14T05:14:21.099Z,12.64
2018-05-14T05:16:49.354Z,12.68
2018-05-14T05:19:17.600Z,12.67
2018-05-14T05:21:46.619Z,12.72
2018-05-14T05:24:14.867Z,12.69
2018-05-14T05:26:43.118Z,12.67
2018-05-14T05:29:11.383Z,12.55
2018-05-14T05:31:40.415Z,12.50
2018-05-14T05:34:08.643Z,12.54
2018-05-14T05:36:36.971Z,12.49
2018-05-14T05:39:05.975Z,12.49
2018-05-14T05:41:35.075Z,12.54
2018-05-14T05:44:04.109Z,12.68
2018-05-14T05:46:32.346Z,12.61
2018-05-14T05:49:01.450Z,12.69
2018-05-14T05:51:29.771Z,12.71
2018-05-14T05:53:58.791Z,12.59
2018-05-14T05:56:27.023Z,12.65
2018-05-14T05:58:55.280Z,12.76
2018-05-14T06:01:24.386Z,12.82
2018-05-14T06:03:52.648Z,12.69
2018-05-14T06:06:21.649Z,12.76
2018-05-14T06:08:49.944Z,12.82
2018-05-14T06:11:18.954Z,12.72
2018-05-14T06:13:48.013Z,12.66
2018-05-14T06:16:16.242Z,12.82
2018-05-14T06:18:45.259Z,12.84
2018-05-14T06:21:14.270Z,12.97
2018-05-14T06:23:43.294Z,13.11
2018-05-14T06:26:11.522Z,12.91
2018-05-14T06:28:39.777Z,12.80
2018-05-14T06:31:08.024Z,12.93
2018-05-14T06:33:36.275Z,12.95
2018-05-14T06:36:04.603Z,13.08
2018-05-14T06:38:33.614Z,13.12
2018-05-14T06:41:03.212Z,13.12
2018-05-14T06:43:31.539Z,13.03
2018-05-14T06:45:59.780Z,13.07
2018-05-14T06:48:28.040Z,12.91
2018-05-14T06:50:56.275Z,12.82
2018-05-14T06:53:24.582Z,12.77
2018-05-14T06:55:53.691Z,12.75
2018-05-14T06:58:23.465Z,13.04
2018-05-14T07:00:51.694Z,13.10
2018-05-14T07:03:19.995Z,13.33
2018-05-14T07:05:49.003Z,13.47
2018-05-14T07:08:18.031Z,13.37
2018-05-14T07:10:46.315Z,13.88
2018-05-14T07:13:14.571Z,13.99
2018-05-14T07:15:44.159Z,14.02
2018-05-14T07:18:12.419Z,13.98
2018-05-14T07:20:41.427Z,13.82
2018-05-14T07:23:09.679Z,13.78
2018-05-14T07:25:37.919Z,14.01
2018-05-14T07:28:06.172Z,14.10
2018-05-14T07:30:35.190Z,14.12
2018-05-14T07:33:03.448Z,13.68
2018-05-14T07:35:31.684Z,13.46
2018-05-14T07:37:59.946Z,13.75
2018-05-14T07:40:29.758Z,13.95
2018-05-14T07:42:57.967Z,13.81
2018-05-14T07:45:26.210Z,13.72
2018-05-14T07:47:54.531Z,13.77
2018-05-14T07:50:24.138Z,13.76
2018-05-14T07:52:53.563Z,13.68
2018-05-14T07:55:22.586Z,13.72
2018-05-14T07:57:50.930Z,13.67
2018-05-14T08:00:19.964Z,13.71
2018-05-14T08:02:48.131Z,13.66
2018-05-14T08:05:16.443Z,13.68
2018-05-14T08:07:45.442Z,13.61
2018-05-14T08:10:13.698Z,13.76
2018-05-14T08:12:41.954Z,13.79
2018-05-14T08:15:10.211Z,13.68
2018-05-14T08:17:39.237Z,13.65
2018-05-14T08:20:08.846Z,13.76
2018-05-14T08:22:37.851Z,13.86
2018-05-14T08:25:06.106Z,13.81
2018-05-14T08:27:34.353Z,13.69
2018-05-14T08:30:02.650Z,13.69
2018-05-14T08:32:30.892Z,13.85
2018-05-14T08:34:59.165Z,13.99
2018-05-14T08:37:27.426Z,14.06
2018-05-14T08:39:55.667Z,14.20
2018-05-14T08:42:23.966Z,14.23
2018-05-14T08:44:52.990Z,14.11
2018-05-14T08:47:21.996Z,13.83
2018-05-14T08:49:50.261Z,14.09
2018-05-14T08:52:18.496Z,13.79
2018-05-14T08:54:46.784Z,13.72
2018-05-14T08:57:15.750Z,13.87
2018-05-14T08:59:43.998Z,14.05
2018-05-14T09:02:12.244Z,14.16
2018-05-14T09:04:41.260Z,13.83
2018-05-14T09:07:09.503Z,13.94
2018-05-14T09:09:37.758Z,13.75
2018-05-14T09:12:05.997Z,13.84
2018-05-14T09:14:34.272Z,13.98
2018-05-14T09:17:02.525Z,13.85
2018-05-14T09:19:30.922Z,13.93
2018-05-14T09:21:59.871Z,13.93
2018-05-14T09:24:28.131Z,14.08
2018-05-14T09:26:56.378Z,14.05
2018-05-14T09:29:24.652Z,14.12
2018-05-14T09:31:52.947Z,13.96
2018-05-14T09:34:22.724Z,13.86
2018-05-14T09:36:50.967Z,14.08
2018-05-14T09:39:19.198Z,13.89
2018-05-14T09:41:47.456Z,13.89
2018-05-14T09:44:15.703Z,14.03
2018-05-14T09:46:44.728Z,13.84
2018-05-14T09:49:14.482Z,13.94
2018-05-14T09:51:42.741Z,13.81
2018-05-14T09:54:12.496Z,14.04
2018-05-14T09:56:40.746Z,13.92
2018-05-14T09:59:09.761Z,14.11
2018-05-14T10:01:38.042Z,13.83
2018-05-14T10:04:07.049Z,14.02
2018-05-14T10:06:36.077Z,14.34
2018-05-14T10:09:04.322Z,14.38
2018-05-14T10:11:34.173Z,14.15
2018-05-14T10:14:03.184Z,14.04
2018-05-14T10:16:31.457Z,14.18
2018-05-14T10:19:00.468Z,14.27
2018-05-14T10:21:29.492Z,14.14
2018-05-14T10:23:57.762Z,14.43
2018-05-14T10:26:26.876Z,14.54
2018-05-14T10:28:55.888Z,14.74
2018-05-14T10:31:24.987Z,14.80
2018-05-14T10:33:53.233Z,14.84
2018-05-14T10:36:21.515Z,14.69
2018-05-14T10:38:49.751Z,14.56
2018-05-14T10:41:18.798Z,14.68
2018-05-14T10:43:47.047Z,14.64
2018-05-14T10:46:16.157Z,14.47
2018-05-14T10:48:45.917Z,14.50
2018-05-14T10:51:14.163Z,14.63
2018-05-14T10:53:43.180Z,15.04
2018-05-14T10:56:12.207Z,15.10
2018-05-14T10:58:40.500Z,15.11
2018-05-14T11:01:08.702Z,15.08
2018-05-14T11:03:36.955Z,14.96
2018-05-14T11:06:05.975Z,14.74
2018-05-14T11:08:34.975Z,14.96
2018-05-14T11:11:03.271Z,15.06
2018-05-14T11:13:32.272Z,14.94
2018-05-14T11:16:00.536Z,14.90
2018-05-14T11:18:28.779Z,14.86
2018-05-14T11:20:57.042Z,15.12
2018-05-14T11:23:25.278Z,15.21
2018-05-14T11:25:54.317Z,15.33
2018-05-14T11:28:23.318Z,15.42
2018-05-14T11:30:52.335Z,15.33
2018-05-14T11:33:22.098Z,15.17
2018-05-14T11:35:50.351Z,14.97
2018-05-14T11:38:19.358Z,15.38
2018-05-14T11:40:48.385Z,15.51
2018-05-14T11:43:16.641Z,15.37
2018-05-14T11:45:45.643Z,15.56
2018-05-14T11:48:13.900Z,15.22
2018-05-14T11:50:42.248Z,15.23
2018-05-14T11:53:11.263Z,15.36
2018-05-14T11:55:39.501Z,15.56
2018-05-14T11:58:07.759Z,15.61
2018-05-14T12:00:36.008Z,15.71
2018-05-14T12:03:05.073Z,15.66
2018-05-14T12:05:33.275Z,15.62
2018-05-14T12:08:02.307Z,15.46
2018-05-14T12:10:32.083Z,15.46
2018-05-14T12:13:00.342Z,15.59
2018-05-14T12:15:28.616Z,15.54
2018-05-14T12:17:57.651Z,15.49
2018-05-14T12:20:25.887Z,15.40
2018-05-14T12:22:54.131Z,15.45
2018-05-14T12:25:22.383Z,15.48
2018-05-14T12:27:52.147Z,15.61
2018-05-14T12:30:20.405Z,15.42
2018-05-14T12:32:49.423Z,15.52
2018-05-14T12:35:17.721Z,15.40
2018-05-14T12:37:45.975Z,15.44
2018-05-14T12:40:14.987Z,15.51
2018-05-14T12:42:44.007Z,15.52
2018-05-14T12:45:12.250Z,15.43
2018-05-14T12:47:40.531Z,15.49
2018-05-14T12:50:08.767Z,15.61
2018-05-14T12:52:37.059Z,15.74
2018-05-14T12:55:06.156Z,15.70
2018-05-14T12:57:35.179Z,15.58
2018-05-14T13:00:03.429Z,15.63
2018-05-14T13:02:32.456Z,15.88
2018-05-14T13:05:01.435Z,15.91
2018-05-14T13:07:30.493Z,16.27
2018-05-14T13:09:58.804Z,16.62
2018-05-14T13:12:27.253Z,17.03
2018-05-14T13:14:56.269Z,16.95
2018-05-14T13:17:24.577Z,16.57
2018-05-14T13:19:52.816Z,16.45
2018-05-14T13:22:21.111Z,16.15
2018-05-14T13:24:49.412Z,16.22
2018-05-14T13:27:18.454Z,16.20
2018-05-14T13:29:46.711Z,16.26
2018-05-14T13:32:15.699Z,16.05
2018-05-14T13:34:43.988Z,16.40
2018-05-14T13:37:12.243Z,16.92
2018-05-14T13:39:40.490Z,17.62
2018-05-14T13:42:09.539Z,17.58
2018-05-14T13:44:37.828Z,17.72
2018-05-14T13:47:06.787Z,17.13
2018-05-14T13:49:35.824Z,16.68
2018-05-14T13:52:04.112Z,16.43
2018-05-14T13:54:32.379Z,16.16
2018-05-14T13:57:00.622Z,16.34
2018-05-14T13:59:29.682Z,16.22
2018-05-14T14:01:58.656Z,16.19
2018-05-14T14:04:26.953Z,16.34
2018-05-14T14:06:55.967Z,16.48
2018-05-14T14:09:24.989Z,16.48
2018-05-14T14:11:54.011Z,16.37
2018-05-14T14:14:22.270Z,16.47
2018-05-14T14:16:51.283Z,16.40
2018-05-14T14:19:20.268Z,16.18
2018-05-14T14:21:48.555Z,16.50
2018-05-14T14:24:16.919Z,16.27
2018-05-14T14:26:45.836Z,16.39
2018-05-14T14:29:14.061Z,16.00
2018-05-14T14:31:42.340Z,15.95
2018-05-14T14:34:12.116Z,15.89
2018-05-14T14:36:40.356Z,15.73
2018-05-14T14:39:09.343Z,15.77
2018-05-14T14:41:37.622Z,15.76
2018-05-14T14:44:05.883Z,15.90
2018-05-14T14:46:34.131Z,15.99
2018-05-14T14:49:03.238Z,15.99
2018-05-14T14:51:31.410Z,15.97
2018-05-14T14:53:59.633Z,16.09
2018-05-14T14:56:28.671Z,16.05
2018-05-14T14:58:56.935Z,16.01
2018-05-14T15:01:25.188Z,16.10
2018-05-14T15:03:54.247Z,16.18
2018-05-14T15:06:22.492Z,16.19
2018-05-14T15:08:51.515Z,16.28
2018-05-14T15:11:19.724Z,16.15
2018-05-14T15:13:48.023Z,16.19
2018-05-14T15:16:16.280Z,15.95
2018-05-14T15:18:44.535Z,15.91
2018-05-14T15:21:12.774Z,15.88
2018-05-14T15:23:41.032Z,15.75
2018-05-14T15:26:10.034Z,15.63
2018-05-14T15:28:39.067Z,15.71
2018-05-14T15:31:07.310Z,15.75
2018-05-14T15:33:35.571Z,15.87
2018-05-14T15:36:03.854Z,15.76
2018-05-14T15:38:32.126Z,15.67
2018-05-14T15:41:00.367Z,15.63
2018-05-14T15:43:28.635Z,15.56
2018-05-14T15:45:56.844Z,15.66
2018-05-14T15:48:25.139Z,15.59
2018-05-14T15:50:53.402Z,15.43
2018-05-14T15:53:21.596Z,15.54
2018-05-14T15:55:50.612Z,15.58
2018-05-14T15:58:18.906Z,15.66
2018-05-14T16:00:47.163Z,15.65
2018-05-14T16:03:15.403Z,15.80
2018-05-14T16:05:44.423Z,15.67
2018-05-14T16:08:12.686Z,15.95
2018-05-14T16:10:42.111Z,15.80
2018-05-14T16:13:11.235Z,15.77
2018-05-14T16:15:39.498Z,15.54
2018-05-14T16:18:07.741Z,15.61
2018-05-14T16:20:36.009Z,15.57
2018-05-14T16:23:04.283Z,15.41
2018-05-14T16:25:33.317Z,15.36
2018-05-14T16:28:01.587Z,15.31
2018-05-14T16:30:30.621Z,15.35
2018-05-14T16:32:59.635Z,15.27
2018-05-14T16:35:27.979Z,15.39
2018-05-14T16:37:57.807Z,15.36
2018-05-14T16:40:27.245Z,15.30
2018-05-14T16:42:55.483Z,15.20
2018-05-14T16:45:23.762Z,15.24
2018-05-14T16:47:52.771Z,15.23
2018-05-14T16:50:21.082Z,15.18
2018-05-14T16:52:49.389Z,15.14
2018-05-14T16:55:18.782Z,15.09
2018-05-14T16:57:47.057Z,15.00
2018-05-14T17:00:15.250Z,15.01
2018-05-14T17:02:44.345Z,14.99
2018-05-14T17:05:13.408Z,14.94
2018-05-14T17:07:41.654Z,14.96
2018-05-14T17:10:09.961Z,14.93
2018-05-14T17:12:38.983Z,14.97
2018-05-14T17:15:08.004Z,14.98
2018-05-14T17:17:36.257Z,15.02
2018-05-14T17:20:04.534Z,15.08
2018-05-14T17:22:32.780Z,15.12
2018-05-14T17:25:01.057Z,15.11
2018-05-14T17:27:29.332Z,15.09
2018-05-14T17:29:58.435Z,15.09
2018-05-14T17:32:28.246Z,15.08
2018-05-14T17:34:56.543Z,15.08
2018-05-14T17:37:25.551Z,15.12
2018-05-14T17:39:54.574Z,15.12
2018-05-14T17:42:22.849Z,15.13
2018-05-14T17:44:51.963Z,15.06
2018-05-14T17:47:21.075Z,15.15
2018-05-14T17:49:50.065Z,15.21
2018-05-14T17:52:18.322Z,15.05
2018-05-14T17:54:47.384Z,15.18
2018-05-14T17:57:16.478Z,15.19
2018-05-14T17:59:45.511Z,15.14
2018-05-14T18:02:13.788Z,15.04
2018-05-14T18:04:42.000Z,15.08
2018-05-14T18:07:10.306Z,15.01
2018-05-14T18:09:38.646Z,14.92
2018-05-14T18:12:07.673Z,14.87
2018-05-14T18:14:35.885Z,14.84
2018-05-14T18:17:04.183Z,14.81
2018-05-14T18:19:37.891Z,14.79
2018-05-14T18:22:11.621Z,14.76
2018-05-14T18:27:45.231Z,14.61
2018-05-14T18:30:13.474Z,14.55
2018-05-14T18:35:43.933Z,14.47
2018-05-14T18:38:12.171Z,14.42
2018-05-14T18:40:41.221Z,14.39
2018-05-14T18:43:09.502Z,14.32
2018-05-14T18:45:37.745Z,14.31
2018-05-14T18:48:06.776Z,14.34
2018-05-14T18:50:35.060Z,14.32
2018-05-14T18:53:03.298Z,14.32
2018-05-14T18:55:32.354Z,14.27
2018-05-14T18:58:01.383Z,14.25
2018-05-14T19:00:29.596Z,14.35
2018-05-14T19:02:58.677Z,14.27
2018-05-14T19:05:26.943Z,14.22
2018-05-14T19:07:55.982Z,14.19
2018-05-14T19:10:29.884Z,14.14
2018-05-14T19:12:58.147Z,14.13
2018-05-14T19:15:32.778Z,14.10
2018-05-14T19:18:01.826Z,14.06
2018-05-14T19:20:30.062Z,14.06
2018-05-14T19:23:05.518Z,14.02
2018-05-14T19:25:33.893Z,13.98
2018-05-14T19:28:07.700Z,13.91
2018-05-14T19:30:36.762Z,13.87
2018-05-14T19:33:05.810Z,13.88
2018-05-14T19:35:39.607Z,13.91
2018-05-14T19:38:08.636Z,13.93
2018-05-14T19:40:42.488Z,13.95
2018-05-14T19:43:10.756Z,13.96
2018-05-14T19:45:39.095Z,13.98
2018-05-14T19:48:08.133Z,14.03
2018-05-14T19:50:36.390Z,14.07
2018-05-14T19:53:05.380Z,14.09
2018-05-14T19:55:33.666Z,14.14
2018-05-14T19:58:02.003Z,14.16
2018-05-14T20:00:30.272Z,14.18
2018-05-14T20:02:59.295Z,14.21
2018-05-14T20:05:27.563Z,14.19
2018-05-14T20:07:56.607Z,14.18
2018-05-14T20:10:24.866Z,14.13
2018-05-14T20:12:53.933Z,14.13
2018-05-14T20:15:22.191Z,14.16
2018-05-14T20:17:50.456Z,14.08
2018-05-14T20:20:19.471Z,14.27
2018-05-14T20:22:47.729Z,14.15
2018-05-14T20:25:16.759Z,14.17
2018-05-14T20:27:46.574Z,14.20
2018-05-14T20:30:15.723Z,14.10
2018-05-14T20:32:44.088Z,14.04
2018-05-14T20:35:12.363Z,14.03
2018-05-14T20:37:41.359Z,14.03
2018-05-14T20:40:09.639Z,14.04
2018-05-14T20:42:37.912Z,14.07
2018-05-14T20:45:06.229Z,14.06
2018-05-14T20:47:34.449Z,14.02
2018-05-14T20:50:02.823Z,14.09
2018-05-14T20:52:31.115Z,14.05
2018-05-14T20:54:59.398Z,14.03
2018-05-14T20:57:28.402Z,13.98
2018-05-14T20:59:57.393Z,13.97
2018-05-14T21:02:25.679Z,14.01
2018-05-14T21:04:54.742Z,13.97
2018-05-14T21:07:23.031Z,13.96
2018-05-14T21:09:51.307Z,13.95
2018-05-14T21:12:19.599Z,13.92
2018-05-14T21:14:47.890Z,13.95
2018-05-14T21:17:16.127Z,13.94
2018-05-14T21:19:44.408Z,13.95
2018-05-14T21:22:12.619Z,13.92
2018-05-14T21:24:41.022Z,13.95
2018-05-14T21:27:10.618Z,13.93
2018-05-14T21:29:38.879Z,13.95
2018-05-14T21:32:07.159Z,13.96
2018-05-14T21:34:35.525Z,13.99
2018-05-14T21:37:03.859Z,13.97
2018-05-14T21:39:32.189Z,13.98
2018-05-14T21:42:01.253Z,13.99
2018-05-14T21:44:29.514Z,14.00
2018-05-14T21:46:57.775Z,13.94
2018-05-14T21:49:26.821Z,13.96
2018-05-14T21:51:55.075Z,13.96
2018-05-14T21:54:24.187Z,13.96
2018-05-14T21:56:52.468Z,13.95
2018-05-14T21:59:21.458Z,13.93
2018-05-14T22:01:49.772Z,13.88
2018-05-14T22:04:18.777Z,13.83
2018-05-14T22:06:47.064Z,13.80
2018-05-14T22:09:16.094Z,13.68
2018-05-14T22:11:44.366Z,13.67
2018-05-14T22:14:12.652Z,13.61
2018-05-14T22:16:41.635Z,13.56
2018-05-14T22:19:09.964Z,13.52
2018-05-14T22:21:38.242Z,13.42
2018-05-14T22:24:07.279Z,13.38
2018-05-14T22:26:35.645Z,13.37
2018-05-14T22:29:05.012Z,13.36
2018-05-14T22:31:33.278Z,13.33
2018-05-14T22:34:01.554Z,13.32
2018-05-14T22:36:29.934Z,13.26
2018-05-14T22:38:58.175Z,13.23
2018-05-14T22:41:27.217Z,13.21
2018-05-14T22:43:56.655Z,13.23
2018-05-14T22:46:24.931Z,13.30
2018-05-14T22:48:53.251Z,13.29
2018-05-14T22:51:21.521Z,13.29
2018-05-14T22:53:49.767Z,13.30
2018-05-14T22:56:18.077Z,13.28
2018-05-14T22:58:47.086Z,13.29
2018-05-14T23:01:16.118Z,13.29
2018-05-14T23:03:44.360Z,13.33
2018-05-14T23:06:12.654Z,13.35
2018-05-14T23:08:41.664Z,13.37
2018-05-14T23:11:10.767Z,13.36
2018-05-14T23:13:39.751Z,13.33
2018-05-14T23:16:08.820Z,13.37
2018-05-14T23:18:37.051Z,13.34
2018-05-14T23:21:06.119Z,13.33
2018-05-14T23:23:34.383Z,13.32
2018-05-14T23:26:03.418Z,13.35
2018-05-14T23:28:31.903Z,13.30
2018-05-14T23:31:00.172Z,13.33
2018-05-14T23:33:29.233Z,13.30
2018-05-14T23:35:57.447Z,13.29
2018-05-14T23:38:26.567Z,13.29
2018-05-14T23:40:55.600Z,13.26
2018-05-14T23:43:23.862Z,13.25
2018-05-14T23:45:53.071Z,13.29
2018-05-14T23:48:21.985Z,13.23
2018-05-14T23:50:51.009Z,13.21
2018-05-14T23:53:19.251Z,13.20
2018-05-14T23:55:48.304Z,13.19
2018-05-14T23:58:16.544Z,13.20
